sensor_id;sensor_type;location;lat;lon;timestamp;noise_LAeq;noise_LA_min;noise_LA_max;noise_LA01;noise_LA95
66450;Laerm;56829;52.274;4.770;2023-01-15T00:00:09;67.28;48.66;85.04;;
66450;Laerm;56829;52.274;4.770;2023-01-15T00:00:20;70.53;51.20;83.29;;
66450;Laerm;56829;52.274;4.770;2023-01-15T00:00:30;63.75;51.27;73.31;;
66450;Laerm;56829;52.274;4.770;2023-01-15T00:00:40;52.68;44.60;65.97;;
66450;Laerm;56829;52.274;4.770;2023-01-15T00:00:51;71.05;45.88;85.03;;
66450;Laerm;56829;52.274;4.770;2023-01-15T00:01:01;67.67;45.74;81.57;;
66450;Laerm;56829;52.274;4.770;2023-01-15T00:01:29;55.85;43.85;69.84;;
66450;Laerm;56829;52.274;4.770;2023-01-15T00:01:40;53.28;44.36;69.15;;
66450;Laerm;56829;52.274;4.770;2023-01-15T00:01:51;51.77;44.18;63.86;;
66450;Laerm;56829;52.274;4.770;2023-01-15T00:02:01;61.60;52.90;74.76;;
66450;Laerm;56829;52.274;4.770;2023-01-15T00:02:11;59.18;51.03;72.98;;
66450;Laerm;56829;52.274;4.770;2023-01-15T00:02:22;56.97;48.60;65.83;;
66450;Laerm;56829;52.274;4.770;2023-01-15T00:02:32;52.49;47.93;62.10;;
66450;Laerm;56829;52.274;4.770;2023-01-15T00:02:42;55.02;44.35;62.53;;
66450;Laerm;56829;52.274;4.770;2023-01-15T00:02:52;45.92;42.72;53.20;;
66450;Laerm;56829;52.274;4.770;2023-01-15T00:03:04;62.20;42.49;80.94;;
66450;Laerm;56829;52.274;4.770;2023-01-15T00:03:14;48.71;41.92;60.51;;
66450;Laerm;56829;52.274;4.770;2023-01-15T00:03:24;46.13;40.67;60.73;;
66450;Laerm;56829;52.274;4.770;2023-01-15T00:03:35;44.29;41.60;49.26;;
66450;Laerm;56829;52.274;4.770;2023-01-15T00:03:45;47.57;44.17;55.54;;
66450;Laerm;56829;52.274;4.770;2023-01-15T00:03:56;52.91;44.14;60.43;;
66450;Laerm;56829;52.274;4.770;2023-01-15T00:04:07;62.75;49.13;75.05;;
66450;Laerm;56829;52.274;4.770;2023-01-15T00:04:17;67.61;51.38;78.55;;
66450;Laerm;56829;52.274;4.770;2023-01-15T00:04:27;60.00;51.10;69.28;;
66450;Laerm;56829;52.274;4.770;2023-01-15T00:04:37;53.35;44.55;64.67;;
66450;Laerm;56829;52.274;4.770;2023-01-15T00:04:49;46.66;43.26;55.39;;
66450;Laerm;56829;52.274;4.770;2023-01-15T00:05:00;64.39;44.61;77.76;;
66450;Laerm;56829;52.274;4.770;2023-01-15T00:05:12;61.36;41.77;76.35;;
66450;Laerm;56829;52.274;4.770;2023-01-15T00:05:22;60.63;46.35;71.60;;
66450;Laerm;56829;52.274;4.770;2023-01-15T00:05:35;59.25;45.17;73.65;;
66450;Laerm;56829;52.274;4.770;2023-01-15T00:05:45;73.06;47.22;91.24;;
66450;Laerm;56829;52.274;4.770;2023-01-15T00:05:55;58.64;42.34;73.10;;
66450;Laerm;56829;52.274;4.770;2023-01-15T00:06:05;55.78;42.78;72.00;;
66450;Laerm;56829;52.274;4.770;2023-01-15T00:06:16;47.80;42.30;63.13;;
66450;Laerm;56829;52.274;4.770;2023-01-15T00:06:26;63.15;42.23;75.16;;
66450;Laerm;56829;52.274;4.770;2023-01-15T00:06:37;55.77;41.66;71.27;;
66450;Laerm;56829;52.274;4.770;2023-01-15T00:06:48;51.43;41.15;68.04;;
66450;Laerm;56829;52.274;4.770;2023-01-15T00:06:59;58.39;41.38;71.02;;
66450;Laerm;56829;52.274;4.770;2023-01-15T00:07:09;68.05;45.84;82.84;;
66450;Laerm;56829;52.274;4.770;2023-01-15T00:07:19;66.71;49.41;78.88;;
66450;Laerm;56829;52.274;4.770;2023-01-15T00:07:30;58.27;42.94;74.55;;
66450;Laerm;56829;52.274;4.770;2023-01-15T00:07:40;64.11;42.52;78.04;;
66450;Laerm;56829;52.274;4.770;2023-01-15T00:07:50;62.11;44.04;76.62;;
66450;Laerm;56829;52.274;4.770;2023-01-15T00:08:01;49.38;41.29;58.25;;
66450;Laerm;56829;52.274;4.770;2023-01-15T00:08:11;49.72;40.26;66.21;;
66450;Laerm;56829;52.274;4.770;2023-01-15T00:08:21;58.18;42.03;73.77;;
66450;Laerm;56829;52.274;4.770;2023-01-15T00:08:31;45.34;40.77;52.43;;
66450;Laerm;56829;52.274;4.770;2023-01-15T00:08:42;50.95;43.77;63.00;;
66450;Laerm;56829;52.274;4.770;2023-01-15T00:08:52;56.73;45.81;70.43;;
66450;Laerm;56829;52.274;4.770;2023-01-15T00:09:03;62.03;52.01;76.67;;
66450;Laerm;56829;52.274;4.770;2023-01-15T00:09:14;70.86;54.40;83.42;;
66450;Laerm;56829;52.274;4.770;2023-01-15T00:09:24;52.49;43.70;64.77;;
66450;Laerm;56829;52.274;4.770;2023-01-15T00:09:35;45.79;42.13;53.82;;
66450;Laerm;56829;52.274;4.770;2023-01-15T00:09:45;62.16;49.04;79.02;;
66450;Laerm;56829;52.274;4.770;2023-01-15T00:09:55;52.91;43.08;64.36;;
66450;Laerm;56829;52.274;4.770;2023-01-15T00:10:05;52.48;42.82;65.26;;
66450;Laerm;56829;52.274;4.770;2023-01-15T00:10:16;54.72;41.10;66.63;;
66450;Laerm;56829;52.274;4.770;2023-01-15T00:10:26;43.56;41.49;51.19;;
66450;Laerm;56829;52.274;4.770;2023-01-15T00:10:36;51.98;41.83;66.76;;
66450;Laerm;56829;52.274;4.770;2023-01-15T00:10:46;51.58;44.51;68.52;;
66450;Laerm;56829;52.274;4.770;2023-01-15T00:10:56;58.03;46.62;70.27;;
66450;Laerm;56829;52.274;4.770;2023-01-15T00:11:06;60.71;48.96;77.79;;
66450;Laerm;56829;52.274;4.770;2023-01-15T00:11:17;66.19;49.07;78.53;;
66450;Laerm;56829;52.274;4.770;2023-01-15T00:11:28;58.48;47.33;70.62;;
66450;Laerm;56829;52.274;4.770;2023-01-15T00:11:38;59.81;47.79;69.18;;
66450;Laerm;56829;52.274;4.770;2023-01-15T00:11:48;68.54;47.10;86.22;;
66450;Laerm;56829;52.274;4.770;2023-01-15T00:11:58;62.03;43.41;77.81;;
66450;Laerm;56829;52.274;4.770;2023-01-15T00:12:09;53.72;43.96;63.50;;
66450;Laerm;56829;52.274;4.770;2023-01-15T00:12:19;73.09;44.67;88.27;;
66450;Laerm;56829;52.274;4.770;2023-01-15T00:12:30;60.10;45.22;70.75;;
66450;Laerm;56829;52.274;4.770;2023-01-15T00:12:40;57.47;43.01;74.66;;
66450;Laerm;56829;52.274;4.770;2023-01-15T00:12:50;55.23;43.52;64.02;;
66450;Laerm;56829;52.274;4.770;2023-01-15T00:13:00;58.32;46.88;69.23;;
66450;Laerm;56829;52.274;4.770;2023-01-15T00:13:10;67.86;45.19;80.33;;
66450;Laerm;56829;52.274;4.770;2023-01-15T00:13:21;57.01;42.58;71.09;;
66450;Laerm;56829;52.274;4.770;2023-01-15T00:13:31;50.53;41.34;67.72;;
66450;Laerm;56829;52.274;4.770;2023-01-15T00:13:41;46.89;43.29;56.70;;
66450;Laerm;56829;52.274;4.770;2023-01-15T00:13:52;55.00;46.88;64.91;;
66450;Laerm;56829;52.274;4.770;2023-01-15T00:14:02;69.58;45.69;84.21;;
66450;Laerm;56829;52.274;4.770;2023-01-15T00:14:12;56.92;44.95;69.49;;
66450;Laerm;56829;52.274;4.770;2023-01-15T00:14:22;54.49;45.34;61.33;;
66450;Laerm;56829;52.274;4.770;2023-01-15T00:14:33;51.97;48.27;57.67;;
66450;Laerm;56829;52.274;4.770;2023-01-15T00:14:43;58.42;51.33;70.90;;
66450;Laerm;56829;52.274;4.770;2023-01-15T00:14:53;65.05;51.57;77.59;;
66450;Laerm;56829;52.274;4.770;2023-01-15T00:15:03;52.76;45.81;62.67;;
66450;Laerm;56829;52.274;4.770;2023-01-15T00:15:14;69.09;46.45;81.78;;
66450;Laerm;56829;52.274;4.770;2023-01-15T00:15:24;52.32;46.70;62.01;;
66450;Laerm;56829;52.274;4.770;2023-01-15T00:15:34;53.34;44.51;61.62;;
66450;Laerm;56829;52.274;4.770;2023-01-15T00:15:45;54.14;44.47;70.01;;
66450;Laerm;56829;52.274;4.770;2023-01-15T00:16:11;52.65;46.33;63.54;;
66450;Laerm;56829;52.274;4.770;2023-01-15T00:16:22;54.34;41.97;75.27;;
66450;Laerm;56829;52.274;4.770;2023-01-15T00:16:32;60.51;45.04;73.24;;
66450;Laerm;56829;52.274;4.770;2023-01-15T00:16:43;65.70;43.56;78.82;;
66450;Laerm;56829;52.274;4.770;2023-01-15T00:16:54;73.13;46.66;91.47;;
66450;Laerm;56829;52.274;4.770;2023-01-15T00:17:04;79.10;53.01;90.31;;
66450;Laerm;56829;52.274;4.770;2023-01-15T00:17:14;54.70;44.30;64.66;;
66450;Laerm;56829;52.274;4.770;2023-01-15T00:17:25;52.12;42.86;65.67;;
66450;Laerm;56829;52.274;4.770;2023-01-15T00:17:35;63.62;43.64;79.96;;
66450;Laerm;56829;52.274;4.770;2023-01-15T00:17:45;55.49;42.77;71.78;;
66450;Laerm;56829;52.274;4.770;2023-01-15T00:17:55;51.91;43.07;65.73;;
66450;Laerm;56829;52.274;4.770;2023-01-15T00:18:05;48.81;41.67;59.50;;
66450;Laerm;56829;52.274;4.770;2023-01-15T00:18:16;48.13;41.80;59.72;;
66450;Laerm;56829;52.274;4.770;2023-01-15T00:18:26;57.47;42.24;74.58;;
66450;Laerm;56829;52.274;4.770;2023-01-15T00:18:36;46.57;40.95;62.26;;
66450;Laerm;56829;52.274;4.770;2023-01-15T00:18:53;43.08;40.74;48.16;;
66450;Laerm;56829;52.274;4.770;2023-01-15T00:19:04;56.57;44.86;67.04;;
66450;Laerm;56829;52.274;4.770;2023-01-15T00:19:17;62.72;47.44;77.94;;
66450;Laerm;56829;52.274;4.770;2023-01-15T00:19:27;62.15;47.32;71.67;;
66450;Laerm;56829;52.274;4.770;2023-01-15T00:19:37;69.33;43.32;82.35;;
66450;Laerm;56829;52.274;4.770;2023-01-15T00:19:47;71.20;44.94;84.19;;
66450;Laerm;56829;52.274;4.770;2023-01-15T00:19:57;67.87;49.06;80.03;;
66450;Laerm;56829;52.274;4.770;2023-01-15T00:20:08;64.02;50.27;77.26;;
66450;Laerm;56829;52.274;4.770;2023-01-15T00:20:18;57.05;45.54;71.88;;
66450;Laerm;56829;52.274;4.770;2023-01-15T00:20:29;61.46;45.00;72.99;;
66450;Laerm;56829;52.274;4.770;2023-01-15T00:20:39;69.92;43.31;83.70;;
66450;Laerm;56829;52.274;4.770;2023-01-15T00:20:49;58.01;43.42;68.46;;
66450;Laerm;56829;52.274;4.770;2023-01-15T00:21:09;51.72;40.72;64.19;;
66450;Laerm;56829;52.274;4.770;2023-01-15T00:21:19;46.24;41.52;59.48;;
66450;Laerm;56829;52.274;4.770;2023-01-15T00:21:30;49.05;43.65;56.52;;
66450;Laerm;56829;52.274;4.770;2023-01-15T00:21:40;50.02;43.74;57.35;;
66450;Laerm;56829;52.274;4.770;2023-01-15T00:21:51;59.41;43.55;71.51;;
66450;Laerm;56829;52.274;4.770;2023-01-15T00:22:02;61.63;42.82;79.01;;
66450;Laerm;56829;52.274;4.770;2023-01-15T00:22:13;60.33;45.01;71.98;;
66450;Laerm;56829;52.274;4.770;2023-01-15T00:22:23;56.76;44.62;71.48;;
66450;Laerm;56829;52.274;4.770;2023-01-15T00:22:34;53.10;42.44;66.81;;
66450;Laerm;56829;52.274;4.770;2023-01-15T00:22:44;57.70;49.08;67.99;;
66450;Laerm;56829;52.274;4.770;2023-01-15T00:22:54;65.39;46.11;77.51;;
66450;Laerm;56829;52.274;4.770;2023-01-15T00:23:04;59.76;42.23;74.33;;
66450;Laerm;56829;52.274;4.770;2023-01-15T00:23:14;58.92;44.74;69.04;;
66450;Laerm;56829;52.274;4.770;2023-01-15T00:23:44;55.88;40.60;78.80;;
66450;Laerm;56829;52.274;4.770;2023-01-15T00:24:13;50.01;40.71;64.08;;
66450;Laerm;56829;52.274;4.770;2023-01-15T00:24:42;43.82;40.42;54.11;;
66450;Laerm;56829;52.274;4.770;2023-01-15T00:25:15;46.96;41.26;58.06;;
66450;Laerm;56829;52.274;4.770;2023-01-15T00:25:44;54.53;42.39;73.50;;
66450;Laerm;56829;52.274;4.770;2023-01-15T00:26:16;66.21;42.23;88.46;;
66450;Laerm;56829;52.274;4.770;2023-01-15T00:26:46;59.86;44.58;74.64;;
66450;Laerm;56829;52.274;4.770;2023-01-15T00:27:14;60.52;43.49;75.76;;
66450;Laerm;56829;52.274;4.770;2023-01-15T00:27:43;65.52;46.79;84.90;;
66450;Laerm;56829;52.274;4.770;2023-01-15T00:27:54;57.51;45.18;69.36;;
66450;Laerm;56829;52.274;4.770;2023-01-15T00:28:05;58.70;49.19;70.61;;
66450;Laerm;56829;52.274;4.770;2023-01-15T00:28:15;55.39;48.08;69.49;;
66450;Laerm;56829;52.274;4.770;2023-01-15T00:28:25;51.53;45.47;59.96;;
66450;Laerm;56829;52.274;4.770;2023-01-15T00:28:35;65.25;44.39;78.71;;
66450;Laerm;56829;52.274;4.770;2023-01-15T00:28:47;51.74;45.16;62.21;;
66450;Laerm;56829;52.274;4.770;2023-01-15T00:28:57;63.60;45.10;76.31;;
66450;Laerm;56829;52.274;4.770;2023-01-15T00:29:07;52.10;44.12;63.42;;
66450;Laerm;56829;52.274;4.770;2023-01-15T00:29:17;55.25;44.33;66.46;;
66450;Laerm;56829;52.274;4.770;2023-01-15T00:29:28;56.73;44.12;70.92;;
66450;Laerm;56829;52.274;4.770;2023-01-15T00:29:38;58.60;43.20;70.12;;
66450;Laerm;56829;52.274;4.770;2023-01-15T00:29:48;45.15;40.03;61.66;;
66450;Laerm;56829;52.274;4.770;2023-01-15T00:29:59;50.16;41.25;64.91;;
66450;Laerm;56829;52.274;4.770;2023-01-15T00:30:10;47.03;40.65;61.39;;
66450;Laerm;56829;52.274;4.770;2023-01-15T00:30:21;42.76;39.92;54.27;;
66450;Laerm;56829;52.274;4.770;2023-01-15T00:30:33;61.15;42.63;74.34;;
66450;Laerm;56829;52.274;4.770;2023-01-15T00:30:43;48.76;41.82;61.64;;
66450;Laerm;56829;52.274;4.770;2023-01-15T00:30:53;45.98;41.80;54.31;;
66450;Laerm;56829;52.274;4.770;2023-01-15T00:31:03;58.13;45.99;71.97;;
66450;Laerm;56829;52.274;4.770;2023-01-15T00:31:13;59.89;46.13;71.32;;
66450;Laerm;56829;52.274;4.770;2023-01-15T00:31:24;55.03;43.84;65.40;;
66450;Laerm;56829;52.274;4.770;2023-01-15T00:31:34;66.02;48.82;77.98;;
66450;Laerm;56829;52.274;4.770;2023-01-15T00:31:58;52.09;44.08;64.70;;
66450;Laerm;56829;52.274;4.770;2023-01-15T00:32:09;51.50;45.13;58.70;;
66450;Laerm;56829;52.274;4.770;2023-01-15T00:32:19;71.27;48.24;87.91;;
66450;Laerm;56829;52.274;4.770;2023-01-15T00:32:29;50.01;44.35;56.70;;
66450;Laerm;56829;52.274;4.770;2023-01-15T00:32:40;46.77;41.53;55.03;;
66450;Laerm;56829;52.274;4.770;2023-01-15T00:32:51;56.25;48.22;67.13;;
66450;Laerm;56829;52.274;4.770;2023-01-15T00:33:01;63.02;47.77;75.12;;
66450;Laerm;56829;52.274;4.770;2023-01-15T00:33:11;54.49;47.51;63.35;;
66450;Laerm;56829;52.274;4.770;2023-01-15T00:33:21;61.96;47.45;77.11;;
66450;Laerm;56829;52.274;4.770;2023-01-15T00:33:31;48.91;43.30;60.98;;
66450;Laerm;56829;52.274;4.770;2023-01-15T00:33:41;43.96;40.31;48.97;;
66450;Laerm;56829;52.274;4.770;2023-01-15T00:33:52;47.70;39.43;60.88;;
66450;Laerm;56829;52.274;4.770;2023-01-15T00:34:02;49.23;40.80;61.42;;
66450;Laerm;56829;52.274;4.770;2023-01-15T00:34:12;51.03;41.48;68.26;;
66450;Laerm;56829;52.274;4.770;2023-01-15T00:34:22;43.61;41.56;48.27;;
66450;Laerm;56829;52.274;4.770;2023-01-15T00:34:33;46.80;42.11;56.25;;
66450;Laerm;56829;52.274;4.770;2023-01-15T00:34:43;45.75;43.29;52.56;;
66450;Laerm;56829;52.274;4.770;2023-01-15T00:34:53;55.94;45.48;61.83;;
66450;Laerm;56829;52.274;4.770;2023-01-15T00:35:03;55.91;41.58;66.92;;
66450;Laerm;56829;52.274;4.770;2023-01-15T00:35:15;45.18;40.70;56.01;;
66450;Laerm;56829;52.274;4.770;2023-01-15T00:35:26;53.28;40.36;68.34;;
66450;Laerm;56829;52.274;4.770;2023-01-15T00:35:36;50.45;39.79;68.52;;
66450;Laerm;56829;52.274;4.770;2023-01-15T00:35:46;52.88;40.40;69.05;;
66450;Laerm;56829;52.274;4.770;2023-01-15T00:35:56;41.48;38.76;49.02;;
66450;Laerm;56829;52.274;4.770;2023-01-15T00:36:07;39.82;37.91;44.11;;
66450;Laerm;56829;52.274;4.770;2023-01-15T00:36:17;43.60;38.51;57.36;;
66450;Laerm;56829;52.274;4.770;2023-01-15T00:36:27;50.68;39.73;62.05;;
66450;Laerm;56829;52.274;4.770;2023-01-15T00:36:37;44.92;40.15;60.06;;
66450;Laerm;56829;52.274;4.770;2023-01-15T00:36:49;62.62;40.51;76.79;;
66450;Laerm;56829;52.274;4.770;2023-01-15T00:36:59;59.20;42.06;73.38;;
66450;Laerm;56829;52.274;4.770;2023-01-15T00:37:09;43.91;39.95;52.38;;
66450;Laerm;56829;52.274;4.770;2023-01-15T00:37:20;53.96;41.56;65.08;;
66450;Laerm;56829;52.274;4.770;2023-01-15T00:37:30;53.03;40.90;65.28;;
66450;Laerm;56829;52.274;4.770;2023-01-15T00:37:40;46.24;40.50;56.50;;
66450;Laerm;56829;52.274;4.770;2023-01-15T00:37:51;63.44;44.17;76.52;;
66450;Laerm;56829;52.274;4.770;2023-01-15T00:38:01;54.04;48.01;62.66;;
66450;Laerm;56829;52.274;4.770;2023-01-15T00:38:11;72.10;50.30;87.77;;
66450;Laerm;56829;52.274;4.770;2023-01-15T00:38:21;67.22;47.27;82.87;;
66450;Laerm;56829;52.274;4.770;2023-01-15T00:38:31;53.40;42.17;65.59;;
66450;Laerm;56829;52.274;4.770;2023-01-15T00:38:41;55.20;41.59;66.65;;
66450;Laerm;56829;52.274;4.770;2023-01-15T00:38:52;47.53;41.71;58.25;;
66450;Laerm;56829;52.274;4.770;2023-01-15T00:39:05;47.33;40.74;59.30;;
66450;Laerm;56829;52.274;4.770;2023-01-15T00:39:15;46.04;39.66;60.65;;
66450;Laerm;56829;52.274;4.770;2023-01-15T00:39:25;49.82;40.62;62.72;;
66450;Laerm;56829;52.274;4.770;2023-01-15T00:39:35;45.42;38.98;57.72;;
66450;Laerm;56829;52.274;4.770;2023-01-15T00:39:46;50.09;39.51;60.43;;
66450;Laerm;56829;52.274;4.770;2023-01-15T00:39:56;42.61;39.09;49.11;;
66450;Laerm;56829;52.274;4.770;2023-01-15T00:40:06;41.95;39.01;44.97;;
66450;Laerm;56829;52.274;4.770;2023-01-15T00:40:17;63.80;39.66;78.75;;
66450;Laerm;56829;52.274;4.770;2023-01-15T00:40:28;58.60;47.36;71.88;;
66450;Laerm;56829;52.274;4.770;2023-01-15T00:40:38;57.21;49.60;65.12;;
66450;Laerm;56829;52.274;4.770;2023-01-15T00:40:48;54.97;41.00;62.75;;
66450;Laerm;56829;52.274;4.770;2023-01-15T00:41:01;43.02;39.96;52.54;;
66450;Laerm;56829;52.274;4.770;2023-01-15T00:41:12;46.26;38.02;59.39;;
66450;Laerm;56829;52.274;4.770;2023-01-15T00:41:22;58.61;40.52;69.75;;
66450;Laerm;56829;52.274;4.770;2023-01-15T00:41:32;55.07;40.56;67.62;;
66450;Laerm;56829;52.274;4.770;2023-01-15T00:41:42;47.64;40.76;63.16;;
66450;Laerm;56829;52.274;4.770;2023-01-15T00:41:53;44.42;39.31;53.33;;
66450;Laerm;56829;52.274;4.770;2023-01-15T00:42:03;46.93;38.31;62.57;;
66450;Laerm;56829;52.274;4.770;2023-01-15T00:42:13;54.11;40.69;70.19;;
66450;Laerm;56829;52.274;4.770;2023-01-15T00:42:25;42.91;39.16;52.13;;
66450;Laerm;56829;52.274;4.770;2023-01-15T00:42:35;47.22;37.53;59.72;;
66450;Laerm;56829;52.274;4.770;2023-01-15T00:42:45;50.11;38.63;62.86;;
66450;Laerm;56829;52.274;4.770;2023-01-15T00:42:55;41.99;39.41;47.22;;
66450;Laerm;56829;52.274;4.770;2023-01-15T00:43:05;42.08;38.33;50.04;;
66450;Laerm;56829;52.274;4.770;2023-01-15T00:43:16;40.44;37.65;46.10;;
66450;Laerm;56829;52.274;4.770;2023-01-15T00:43:26;46.61;38.09;63.46;;
66450;Laerm;56829;52.274;4.770;2023-01-15T00:43:36;44.85;39.21;57.95;;
66450;Laerm;56829;52.274;4.770;2023-01-15T00:43:46;46.40;39.69;57.19;;
66450;Laerm;56829;52.274;4.770;2023-01-15T00:43:56;44.18;38.93;53.01;;
66450;Laerm;56829;52.274;4.770;2023-01-15T00:44:06;44.04;38.97;58.05;;
66450;Laerm;56829;52.274;4.770;2023-01-15T00:44:17;41.67;39.61;46.59;;
66450;Laerm;56829;52.274;4.770;2023-01-15T00:44:27;44.13;39.97;53.77;;
66450;Laerm;56829;52.274;4.770;2023-01-15T00:44:37;51.32;43.68;63.10;;
66450;Laerm;56829;52.274;4.770;2023-01-15T00:44:48;60.97;49.21;74.93;;
66450;Laerm;56829;52.274;4.770;2023-01-15T00:44:58;62.21;42.18;76.98;;
66450;Laerm;56829;52.274;4.770;2023-01-15T00:45:14;51.00;39.77;66.71;;
66450;Laerm;56829;52.274;4.770;2023-01-15T00:45:24;45.30;39.92;56.56;;
66450;Laerm;56829;52.274;4.770;2023-01-15T00:45:35;51.02;41.84;63.52;;
66450;Laerm;56829;52.274;4.770;2023-01-15T00:45:45;51.53;41.32;64.98;;
66450;Laerm;56829;52.274;4.770;2023-01-15T00:45:55;53.74;41.06;69.09;;
66450;Laerm;56829;52.274;4.770;2023-01-15T00:46:05;58.05;41.92;70.53;;
66450;Laerm;56829;52.274;4.770;2023-01-15T00:46:17;57.86;42.14;72.10;;
66450;Laerm;56829;52.274;4.770;2023-01-15T00:46:28;53.38;44.30;67.10;;
66450;Laerm;56829;52.274;4.770;2023-01-15T00:46:38;53.16;46.07;62.20;;
66450;Laerm;56829;52.274;4.770;2023-01-15T00:46:48;45.01;41.66;50.89;;
66450;Laerm;56829;52.274;4.770;2023-01-15T00:46:58;50.31;41.79;60.10;;
66450;Laerm;56829;52.274;4.770;2023-01-15T00:47:09;59.07;50.50;67.05;;
66450;Laerm;56829;52.274;4.770;2023-01-15T00:47:23;57.22;48.95;62.64;;
66450;Laerm;56829;52.274;4.770;2023-01-15T00:47:35;60.15;47.94;73.77;;
66450;Laerm;56829;52.274;4.770;2023-01-15T00:47:45;52.95;46.44;64.24;;
66450;Laerm;56829;52.274;4.770;2023-01-15T00:47:57;63.73;47.17;75.16;;
66450;Laerm;56829;52.274;4.770;2023-01-15T00:48:07;67.02;51.13;80.68;;
66450;Laerm;56829;52.274;4.770;2023-01-15T00:48:18;55.05;48.98;67.94;;
66450;Laerm;56829;52.274;4.770;2023-01-15T00:48:28;65.31;47.76;76.88;;
66450;Laerm;56829;52.274;4.770;2023-01-15T00:48:38;57.83;49.76;70.94;;
66450;Laerm;56829;52.274;4.770;2023-01-15T00:48:49;48.04;42.43;59.52;;
66450;Laerm;56829;52.274;4.770;2023-01-15T00:48:59;58.42;42.40;72.85;;
66450;Laerm;56829;52.274;4.770;2023-01-15T00:49:10;49.98;42.32;57.88;;
66450;Laerm;56829;52.274;4.770;2023-01-15T00:49:20;47.75;43.26;59.30;;
66450;Laerm;56829;52.274;4.770;2023-01-15T00:49:30;45.00;40.62;54.95;;
66450;Laerm;56829;52.274;4.770;2023-01-15T00:49:41;53.10;42.36;64.98;;
66450;Laerm;56829;52.274;4.770;2023-01-15T00:49:51;59.46;46.91;73.56;;
66450;Laerm;56829;52.274;4.770;2023-01-15T00:50:03;52.59;43.73;67.08;;
66450;Laerm;56829;52.274;4.770;2023-01-15T00:50:14;54.76;41.04;67.83;;
66450;Laerm;56829;52.274;4.770;2023-01-15T00:50:24;48.81;40.29;60.68;;
66450;Laerm;56829;52.274;4.770;2023-01-15T00:50:34;44.83;41.66;55.86;;
66450;Laerm;56829;52.274;4.770;2023-01-15T00:50:45;44.12;41.12;47.41;;
66450;Laerm;56829;52.274;4.770;2023-01-15T00:50:55;48.91;40.97;63.13;;
66450;Laerm;56829;52.274;4.770;2023-01-15T00:51:06;48.01;41.03;57.80;;
66450;Laerm;56829;52.274;4.770;2023-01-15T00:51:16;42.99;39.63;54.46;;
66450;Laerm;56829;52.274;4.770;2023-01-15T00:51:26;53.40;38.69;69.19;;
66450;Laerm;56829;52.274;4.770;2023-01-15T00:51:36;48.48;40.20;60.60;;
66450;Laerm;56829;52.274;4.770;2023-01-15T00:51:47;50.12;40.25;57.43;;
66450;Laerm;56829;52.274;4.770;2023-01-15T00:51:58;48.38;41.75;60.74;;
66450;Laerm;56829;52.274;4.770;2023-01-15T00:52:09;48.10;42.33;56.85;;
66450;Laerm;56829;52.274;4.770;2023-01-15T00:52:19;43.86;41.11;49.06;;
66450;Laerm;56829;52.274;4.770;2023-01-15T00:52:30;50.65;42.87;63.89;;
66450;Laerm;56829;52.274;4.770;2023-01-15T00:52:40;75.80;43.40;97.47;;
66450;Laerm;56829;52.274;4.770;2023-01-15T00:52:51;57.55;46.86;70.70;;
66450;Laerm;56829;52.274;4.770;2023-01-15T00:53:01;69.61;49.83;82.34;;
66450;Laerm;56829;52.274;4.770;2023-01-15T00:53:11;62.86;48.49;74.74;;
66450;Laerm;56829;52.274;4.770;2023-01-15T00:53:21;57.68;46.16;71.21;;
66450;Laerm;56829;52.274;4.770;2023-01-15T00:53:31;54.15;43.50;67.56;;
66450;Laerm;56829;52.274;4.770;2023-01-15T00:53:41;57.68;43.05;73.43;;
66450;Laerm;56829;52.274;4.770;2023-01-15T00:53:52;60.09;41.65;79.33;;
66450;Laerm;56829;52.274;4.770;2023-01-15T00:54:02;45.94;42.43;51.74;;
66450;Laerm;56829;52.274;4.770;2023-01-15T00:54:12;45.05;42.56;47.48;;
66450;Laerm;56829;52.274;4.770;2023-01-15T00:54:23;44.55;42.19;51.42;;
66450;Laerm;56829;52.274;4.770;2023-01-15T00:54:33;46.34;41.86;57.92;;
66450;Laerm;56829;52.274;4.770;2023-01-15T00:54:43;52.67;45.38;58.94;;
66450;Laerm;56829;52.274;4.770;2023-01-15T00:54:53;55.49;48.97;62.96;;
66450;Laerm;56829;52.274;4.770;2023-01-15T00:55:04;53.57;46.08;65.01;;
66450;Laerm;56829;52.274;4.770;2023-01-15T00:55:14;51.05;42.75;68.32;;
66450;Laerm;56829;52.274;4.770;2023-01-15T00:55:25;48.46;42.89;57.17;;
66450;Laerm;56829;52.274;4.770;2023-01-15T00:55:35;58.28;43.91;69.23;;
66450;Laerm;56829;52.274;4.770;2023-01-15T00:55:45;50.99;44.64;59.25;;
66450;Laerm;56829;52.274;4.770;2023-01-15T00:55:55;57.15;52.49;63.19;;
66450;Laerm;56829;52.274;4.770;2023-01-15T00:56:06;54.97;46.22;62.95;;
66450;Laerm;56829;52.274;4.770;2023-01-15T00:56:16;46.39;43.24;56.29;;
66450;Laerm;56829;52.274;4.770;2023-01-15T00:56:26;51.77;44.77;60.22;;
66450;Laerm;56829;52.274;4.770;2023-01-15T00:56:36;52.58;44.72;63.99;;
66450;Laerm;56829;52.274;4.770;2023-01-15T00:56:46;57.52;43.19;73.36;;
66450;Laerm;56829;52.274;4.770;2023-01-15T00:56:57;57.96;44.90;70.77;;
66450;Laerm;56829;52.274;4.770;2023-01-15T00:57:07;47.75;42.50;59.56;;
66450;Laerm;56829;52.274;4.770;2023-01-15T00:57:20;50.42;43.26;59.58;;
66450;Laerm;56829;52.274;4.770;2023-01-15T00:57:30;57.98;44.65;70.84;;
66450;Laerm;56829;52.274;4.770;2023-01-15T00:57:40;55.95;43.64;70.37;;
66450;Laerm;56829;52.274;4.770;2023-01-15T00:57:50;49.13;42.47;58.25;;
66450;Laerm;56829;52.274;4.770;2023-01-15T00:58:01;44.47;41.52;48.45;;
66450;Laerm;56829;52.274;4.770;2023-01-15T00:58:11;43.13;40.62;47.26;;
66450;Laerm;56829;52.274;4.770;2023-01-15T00:58:21;43.41;40.75;48.45;;
66450;Laerm;56829;52.274;4.770;2023-01-15T00:58:31;42.97;40.09;47.19;;
66450;Laerm;56829;52.274;4.770;2023-01-15T00:58:41;42.02;38.84;53.06;;
66450;Laerm;56829;52.274;4.770;2023-01-15T00:58:52;47.71;39.93;62.02;;
66450;Laerm;56829;52.274;4.770;2023-01-15T00:59:02;43.78;39.63;52.31;;
66450;Laerm;56829;52.274;4.770;2023-01-15T00:59:13;42.68;38.93;53.44;;
66450;Laerm;56829;52.274;4.770;2023-01-15T00:59:23;45.62;39.05;61.11;;
66450;Laerm;56829;52.274;4.770;2023-01-15T00:59:34;56.38;43.62;71.08;;
66450;Laerm;56829;52.274;4.770;2023-01-15T00:59:44;46.08;39.49;59.92;;
66450;Laerm;56829;52.274;4.770;2023-01-15T00:59:54;45.34;39.82;56.73;;
66450;Laerm;56829;52.274;4.770;2023-01-15T01:00:04;42.93;39.63;51.57;;
66450;Laerm;56829;52.274;4.770;2023-01-15T01:00:15;42.36;40.25;45.05;;
66450;Laerm;56829;52.274;4.770;2023-01-15T01:00:25;43.24;39.20;55.54;;
66450;Laerm;56829;52.274;4.770;2023-01-15T01:00:35;58.33;39.54;72.51;;
66450;Laerm;56829;52.274;4.770;2023-01-15T01:00:45;57.24;45.48;66.12;;
66450;Laerm;56829;52.274;4.770;2023-01-15T01:00:56;50.15;44.24;55.35;;
66450;Laerm;56829;52.274;4.770;2023-01-15T01:01:07;51.43;43.59;65.19;;
66450;Laerm;56829;52.274;4.770;2023-01-15T01:01:17;49.51;44.40;54.08;;
66450;Laerm;56829;52.274;4.770;2023-01-15T01:01:27;51.71;44.26;60.26;;
66450;Laerm;56829;52.274;4.770;2023-01-15T01:01:37;50.22;45.76;55.41;;
66450;Laerm;56829;52.274;4.770;2023-01-15T01:01:48;66.25;47.61;78.47;;
66450;Laerm;56829;52.274;4.770;2023-01-15T01:01:58;48.77;40.78;62.37;;
66450;Laerm;56829;52.274;4.770;2023-01-15T01:02:08;54.86;44.08;68.28;;
66450;Laerm;56829;52.274;4.770;2023-01-15T01:02:18;67.39;49.23;87.03;;
66450;Laerm;56829;52.274;4.770;2023-01-15T01:02:28;53.58;48.99;63.29;;